Time;durP1;ratioP1;P1;durP2;ratioP2;P2;SDS_P1;SDS_P2;PMS_P1;PMS_P2;Temp;Humidity;BMP_temperature;BMP_pressure;BME280_temperature;BME280_humidity;BME280_pressure;Samples;Min_cycle;Max_cycle;Signal;HPM_P1;HPM_P2
2022/03/14 00:01:02;;;;;;;1999.90;999.90;;;;;;;0.82;27.88;101607.63;4991845;28;99301;-71
2022/03/14 00:03:50;;;;;;;1999.90;999.90;;;;;;;0.79;28.15;101610.94;4990189;28;99615;-71
2022/03/14 00:06:18;;;;;;;1999.90;999.90;;;;;;;0.75;28.28;101605.34;4986749;28;96849;-71
2022/03/14 00:08:46;;;;;;;1999.90;999.90;;;;;;;0.73;28.25;101601.72;5014989;27;96818;-71
2022/03/14 00:11:16;;;;;;;1999.90;999.90;;;;;;;0.71;28.24;101601.59;5010199;27;97565;-71
2022/03/14 00:13:46;;;;;;;1999.90;999.90;;;;;;;0.69;28.22;101597.97;5001673;28;97164;-71
2022/03/14 00:16:23;;;;;;;1999.90;999.90;;;;;;;0.68;28.15;101601.38;4991584;28;96947;-71
2022/03/14 00:18:55;;;;;;;1999.90;999.90;;;;;;;0.66;28.09;101597.75;5016553;27;96865;-71
2022/03/14 00:21:24;;;;;;;1999.90;999.90;;;;;;;0.65;28.20;101598.53;5020676;27;97791;-71
2022/03/14 00:23:52;;;;;;;1999.90;999.90;;;;;;;0.65;28.25;101597.63;5022999;27;98662;-71
2022/03/14 00:26:22;;;;;;;1999.90;999.90;;;;;;;0.67;28.28;101606.50;5016241;27;99455;-71
2022/03/14 00:28:50;;;;;;;1999.90;999.90;;;;;;;0.61;28.16;101606.06;4989104;28;98338;-71
2022/03/14 00:31:18;;;;;;;1999.90;999.90;;;;;;;0.60;28.26;101601.59;5005801;27;99980;-71
2022/03/14 00:33:46;;;;;;;1999.90;999.90;;;;;;;0.59;28.40;101612.88;5003337;27;98788;-71
2022/03/14 00:36:15;;;;;;;1999.90;999.90;;;;;;;0.58;28.30;101605.81;5006075;27;97058;-71
2022/03/14 00:38:43;;;;;;;1999.90;999.90;;;;;;;0.55;28.48;101616.06;5008097;27;96885;-71
2022/03/14 00:41:12;;;;;;;1999.90;999.90;;;;;;;0.52;28.30;101606.28;5013744;27;97999;-71
2022/03/14 00:43:40;;;;;;;1999.90;999.90;;;;;;;0.48;28.56;101613.81;5013645;27;98362;-71
2022/03/14 00:46:08;;;;;;;1999.90;999.90;;;;;;;0.47;28.77;101618.13;5015906;27;97828;-71
2022/03/14 00:48:36;;;;;;;1999.90;999.90;;;;;;;0.46;28.68;101612.78;5003015;28;97228;-71
2022/03/14 00:51:05;;;;;;;1999.90;999.90;;;;;;;0.42;29.05;101614.25;5017818;28;97005;-71
2022/03/14 00:53:35;;;;;;;1999.90;999.90;;;;;;;0.41;28.95;101616.75;5001193;27;97962;-71
2022/03/14 00:56:03;;;;;;;1999.90;999.90;;;;;;;0.39;28.75;101619.28;5015488;27;97659;-71
2022/03/14 00:58:32;;;;;;;1999.90;999.90;;;;;;;0.41;28.67;101603.66;5010045;27;97213;-71
2022/03/14 01:01:03;;;;;;;1999.90;999.90;;;;;;;0.42;28.82;101608.09;4989822;28;97207;-71
2022/03/14 01:03:33;;;;;;;1999.90;999.90;;;;;;;0.41;28.56;101611.53;4996803;28;98781;-71
2022/03/14 01:06:01;;;;;;;1999.90;999.90;;;;;;;0.39;28.59;101611.41;5016532;27;96915;-71
2022/03/14 01:08:28;;;;;;;1999.90;999.90;;;;;;;0.36;28.76;101610.28;5002232;28;98683;-71
2022/03/14 01:10:57;;;;;;;1999.90;999.90;;;;;;;0.33;29.00;101608.31;5014689;27;97605;-71
2022/03/14 01:13:25;;;;;;;1999.90;999.90;;;;;;;0.30;28.89;101605.50;5007831;27;98309;-71
2022/03/14 01:15:54;;;;;;;1999.90;999.90;;;;;;;0.30;28.78;101610.72;4984736;28;97528;-71
2022/03/14 01:18:22;;;;;;;1999.90;999.90;;;;;;;0.28;28.83;101619.25;5016946;27;96884;-71
2022/03/14 01:20:50;;;;;;;1999.90;999.90;;;;;;;0.26;28.78;101618.22;5000847;28;98261;-71
2022/03/14 01:23:18;;;;;;;1999.90;999.90;;;;;;;0.23;28.65;101620.59;5015112;27;98566;-71
2022/03/14 01:25:46;;;;;;;1999.90;999.90;;;;;;;0.21;28.60;101618.75;5001426;28;97720;-72
2022/03/14 01:28:15;;;;;;;1999.90;999.90;;;;;;;0.20;28.76;101622.16;5000382;28;97350;-71
2022/03/14 01:30:44;;;;;;;1999.90;999.90;;;;;;;0.19;28.81;101630.78;5018697;27;97445;-71
2022/03/14 01:33:12;;;;;;;1999.90;999.90;;;;;;;0.19;28.93;101633.41;5011536;28;98153;-71
2022/03/14 01:35:41;;;;;;;1999.90;999.90;;;;;;;0.21;28.66;101642.28;5013499;27;97943;-71
2022/03/14 01:38:10;;;;;;;1999.90;999.90;;;;;;;0.20;28.81;101637.88;5019638;28;97021;-71
2022/03/14 01:40:38;;;;;;;1999.90;999.90;;;;;;;0.19;28.62;101638.66;5010614;27;98900;-71
2022/03/14 01:43:06;;;;;;;1999.90;999.90;;;;;;;0.19;28.90;101637.75;4999172;28;98154;-70
2022/03/14 01:45:35;;;;;;;1999.90;999.90;;;;;;;0.18;28.84;101649.94;5000234;28;98206;-70
2022/03/14 01:48:05;;;;;;;1999.90;999.90;;;;;;;0.16;28.80;101650.59;5000462;28;97496;-71
2022/03/14 01:50:34;;;;;;;1999.90;999.90;;;;;;;0.14;29.05;101649.56;5020826;27;97627;-71
2022/03/14 01:53:01;;;;;;;1999.90;999.90;;;;;;;0.12;28.72;101656.38;5002261;28;100342;-71
2022/03/14 01:55:29;;;;;;;1999.90;999.90;;;;;;;0.09;28.94;101653.53;5020223;27;97119;-70
2022/03/14 01:57:57;;;;;;;1999.90;999.90;;;;;;;0.07;29.03;101658.66;5014023;27;97791;-70
2022/03/14 02:00:25;;;;;;;1999.90;999.90;;;;;;;0.05;28.91;101657.63;5019762;27;97668;-71
2022/03/14 02:02:53;;;;;;;1999.90;999.90;;;;;;;0.02;28.96;101662.63;5019324;27;97591;-70
2022/03/14 02:05:22;;;;;;;1999.90;999.90;;;;;;;-0.01;28.94;101662.38;4999681;28;97391;-71
2022/03/14 02:07:49;;;;;;;1999.90;999.90;;;;;;;-0.01;29.40;101667.59;5019446;27;97250;-71
2022/03/14 02:10:17;;;;;;;1999.90;999.90;;;;;;;-0.03;29.62;101669.19;5001427;28;99262;-71
2022/03/14 02:12:44;;;;;;;1999.90;999.90;;;;;;;-0.06;29.55;101657.59;5015542;27;97811;-71
2022/03/14 02:15:12;;;;;;;1999.90;999.90;;;;;;;-0.11;29.20;101659.88;5019659;27;97149;-70
2022/03/14 02:17:41;;;;;;;1999.90;999.90;;;;;;;-0.14;30.00;101656.09;5018489;28;98384;-71
2022/03/14 02:20:11;;;;;;;1999.90;999.90;;;;;;;-0.17;30.00;101663.69;5008188;27;98473;-71
2022/03/14 02:22:38;;;;;;;1999.90;999.90;;;;;;;-0.21;30.14;101666.88;4983046;28;99657;-71
2022/03/14 02:25:09;;;;;;;1999.90;999.90;;;;;;;-0.25;30.22;101665.72;5015754;27;97214;-71
2022/03/14 02:27:37;;;;;;;1999.90;999.90;;;;;;;-0.28;30.04;101669.81;5000222;28;98347;-71
2022/03/14 02:30:06;;;;;;;1999.90;999.90;;;;;;;-0.31;30.24;101662.63;4995215;28;98674;-71
2022/03/14 02:32:39;;;;;;;1999.90;999.90;;;;;;;-0.33;30.33;101661.59;5018566;27;98874;-71
2022/03/14 02:35:11;;;;;;;1999.90;999.90;;;;;;;-0.38;30.34;101668.19;5000101;27;97279;-71
2022/03/14 02:37:40;;;;;;;1999.90;999.90;;;;;;;-0.39;30.23;101668.06;4997721;28;97194;-71
2022/03/14 02:40:09;;;;;;;1999.90;999.90;;;;;;;-0.46;30.39;101678.78;5017789;28;97710;-71
2022/03/14 02:42:36;;;;;;;1999.90;999.90;;;;;;;-0.50;30.12;101682.88;5020447;27;97566;-71
2022/03/14 02:45:05;;;;;;;1999.90;999.90;;;;;;;-0.55;30.27;101681.59;5016620;27;97488;-71
2022/03/14 02:47:34;;;;;;;1999.90;999.90;;;;;;;-0.58;30.43;101680.44;5011303;27;96896;-71
2022/03/14 02:50:01;;;;;;;1999.90;999.90;;;;;;;-0.63;30.65;101680.09;5011255;28;97817;-71
2022/03/14 02:52:31;;;;;;;1999.90;999.90;;;;;;;-0.65;30.70;101676.44;5027648;27;97735;-70
2022/03/14 02:54:58;;;;;;;1999.90;999.90;;;;;;;-0.67;30.53;101684.94;5019127;27;98632;-71
2022/03/14 02:57:26;;;;;;;1999.90;999.90;;;;;;;-0.69;30.64;101689.13;5019094;27;97265;-71
2022/03/14 02:59:56;;;;;;;1999.90;999.90;;;;;;;-0.75;31.20;101694.78;5018212;28;97624;-71
2022/03/14 03:02:25;;;;;;;1999.90;999.90;;;;;;;-0.78;30.96;101694.53;4966771;28;99493;-71
2022/03/14 03:04:53;;;;;;;1999.90;999.90;;;;;;;-0.82;31.46;101698.59;5001984;27;98119;-71
2022/03/14 03:07:23;;;;;;;1999.90;999.90;;;;;;;-0.84;30.54;101701.88;5000084;27;97930;-71
2022/03/14 03:09:52;;;;;;;1999.90;999.90;;;;;;;-0.88;31.46;101705.94;5013692;27;97728;-71
2022/03/14 03:12:21;;;;;;;1999.90;999.90;;;;;;;-0.92;31.40;101697.72;5018630;27;97614;-71
2022/03/14 03:14:50;;;;;;;1999.90;999.90;;;;;;;-0.93;31.69;101690.69;5017408;27;99000;-71
2022/03/14 03:17:21;;;;;;;1999.90;999.90;;;;;;;-0.96;31.32;101698.28;5014352;27;97908;-70
2022/03/14 03:19:48;;;;;;;1999.90;999.90;;;;;;;-1.02;31.46;101698.69;5008616;27;100754;-71
2022/03/14 03:22:16;;;;;;;1999.90;999.90;;;;;;;-1.06;31.24;101703.53;5001718;28;99321;-71
2022/03/14 03:24:48;;;;;;;1999.90;999.90;;;;;;;-1.10;31.75;101706.66;5007003;27;97976;-71
2022/03/14 03:27:17;;;;;;;1999.90;999.90;;;;;;;-1.14;31.87;101707.22;5007513;27;98070;-71
2022/03/14 03:29:45;;;;;;;1999.90;999.90;;;;;;;-1.19;31.49;101701.59;5012950;28;97627;-71
2022/03/14 03:32:13;;;;;;;1999.90;999.90;;;;;;;-1.21;31.81;101711.00;5004430;27;97422;-71
2022/03/14 03:34:41;;;;;;;1999.90;999.90;;;;;;;-1.24;31.45;101710.75;5018405;27;97988;-71
2022/03/14 03:37:08;;;;;;;1999.90;999.90;;;;;;;-1.27;32.17;101704.38;5018670;27;100215;-71
2022/03/14 03:39:36;;;;;;;1999.90;999.90;;;;;;;-1.29;31.50;101711.16;5018329;28;99004;-71
2022/03/14 03:42:04;;;;;;;1999.90;999.90;;;;;;;-1.34;32.02;101704.66;5008093;27;99369;-71
2022/03/14 03:44:34;;;;;;;1999.90;999.90;;;;;;;-1.36;32.34;101708.84;5007539;28;97958;-71
2022/03/14 03:47:01;;;;;;;1999.90;999.90;;;;;;;-1.38;31.90;101708.72;5013538;27;97968;-71
2022/03/14 03:49:30;;;;;;;1999.90;999.90;;;;;;;-1.41;31.97;101710.13;5015709;27;97822;-71
2022/03/14 03:51:57;;;;;;;1999.90;999.90;;;;;;;-1.44;32.14;101718.63;5015684;27;97270;-71
2022/03/14 03:54:25;;;;;;;1999.90;999.90;;;;;;;-1.47;32.16;101715.75;5020866;27;96789;-71
2022/03/14 03:56:53;;;;;;;1999.90;999.90;;;;;;;-1.46;31.44;101716.66;5022135;27;97443;-71
2022/03/14 03:59:21;;;;;;;1999.90;999.90;;;;;;;-1.49;31.63;101721.66;5016693;27;97689;-71
2022/03/14 04:01:50;;;;;;;1999.90;999.90;;;;;;;-1.51;32.06;101724.13;5017411;28;97585;-71
2022/03/14 04:04:18;;;;;;;1999.90;999.90;;;;;;;-1.50;31.28;101725.03;5012637;27;97549;-71
2022/03/14 04:06:47;;;;;;;1999.90;999.90;;;;;;;-1.51;31.83;101724.13;4990004;28;97229;-72
2022/03/14 04:09:15;;;;;;;1999.90;999.90;;;;;;;-1.52;31.10;101716.19;5021863;27;99632;-71
2022/03/14 04:11:43;;;;;;;1999.90;999.90;;;;;;;-1.52;31.75;101721.41;4999854;28;98804;-71
2022/03/14 04:14:11;;;;;;;1999.90;999.90;;;;;;;-1.52;31.22;101721.41;4987007;27;96867;-71
2022/03/14 04:16:41;;;;;;;1999.90;999.90;;;;;;;-1.53;31.02;101719.56;5016258;27;97077;-71
2022/03/14 04:19:10;;;;;;;1999.90;999.90;;;;;;;-1.55;31.27;101727.25;5019953;28;97757;-71
2022/03/14 04:21:38;;;;;;;1999.90;999.90;;;;;;;-1.57;31.59;101731.44;5003281;28;99286;-71
2022/03/14 04:24:07;;;;;;;1999.90;999.90;;;;;;;-1.59;31.28;101729.47;5019912;27;97153;-71
2022/03/14 04:26:35;;;;;;;1999.90;999.90;;;;;;;-1.65;31.88;101727.25;5012575;27;96872;-71
2022/03/14 04:29:03;;;;;;;1999.90;999.90;;;;;;;-1.69;30.98;101724.28;5015029;28;97649;-71
2022/03/14 04:31:31;;;;;;;1999.90;999.90;;;;;;;-1.73;31.11;101727.41;5021801;27;97752;-71
2022/03/14 04:33:59;;;;;;;1999.90;999.90;;;;;;;-1.76;31.14;101725.44;5022337;27;98140;-70
2022/03/14 04:36:28;;;;;;;1999.90;999.90;;;;;;;-1.77;31.29;101725.31;5018378;27;97805;-70
2022/03/14 04:38:55;;;;;;;1999.90;999.90;;;;;;;-1.80;31.38;101728.59;4989767;28;100778;-70
2022/03/14 04:41:23;;;;;;;1999.90;999.90;;;;;;;-1.81;31.23;101726.75;5020580;28;98418;-71
2022/03/14 04:43:51;;;;;;;1999.90;999.90;;;;;;;-1.83;31.36;101724.81;5014087;28;96861;-71
2022/03/14 04:46:21;;;;;;;1999.90;999.90;;;;;;;-1.86;31.15;101726.38;5015829;28;99125;-71
2022/03/14 04:48:49;;;;;;;1999.90;999.90;;;;;;;-1.87;31.53;101727.13;4985997;28;99430;-71
2022/03/14 04:51:17;;;;;;;1999.90;999.90;;;;;;;-1.89;31.27;101728.69;5002724;28;99147;-70
2022/03/14 04:53:46;;;;;;;1999.90;999.90;;;;;;;-1.92;31.23;101723.22;5012153;27;97400;-71
2022/03/14 04:56:14;;;;;;;1999.90;999.90;;;;;;;-1.95;31.51;101722.97;4990506;28;96989;-70
2022/03/14 04:58:41;;;;;;;1999.90;999.90;;;;;;;-1.98;31.64;101721.81;5019763;28;98775;-71
2022/03/14 05:01:09;;;;;;;1999.90;999.90;;;;;;;-1.99;31.51;101725.19;5001536;28;99616;-71
2022/03/14 05:03:37;;;;;;;1999.90;999.90;;;;;;;-2.03;31.95;101725.69;5017141;28;96929;-70
2022/03/14 05:06:05;;;;;;;1999.90;999.90;;;;;;;-2.05;31.81;101727.25;5012840;27;96762;-70
2022/03/14 05:08:32;;;;;;;1999.90;999.90;;;;;;;-2.09;31.94;101731.28;5002426;28;99232;-71
2022/03/14 05:11:02;;;;;;;1999.90;999.90;;;;;;;-2.10;31.52;101726.88;5022404;27;97976;-71
2022/03/14 05:13:30;;;;;;;1999.90;999.90;;;;;;;-2.12;31.75;101733.63;5015933;28;97643;-70
2022/03/14 05:15:58;;;;;;;1999.90;999.90;;;;;;;-2.15;31.37;101730.78;5005044;27;97449;-71
2022/03/14 05:18:26;;;;;;;1999.90;999.90;;;;;;;-2.16;31.70;101731.53;5008991;27;99061;-71
2022/03/14 05:20:54;;;;;;;1999.90;999.90;;;;;;;-2.18;31.42;101733.06;5002358;27;100683;-71
2022/03/14 05:23:22;;;;;;;1999.90;999.90;;;;;;;-2.22;31.84;101730.06;5020206;27;98201;-71
2022/03/14 05:25:49;;;;;;;1999.90;999.90;;;;;;;-2.25;32.00;101735.91;5020020;27;99059;-71
2022/03/14 05:28:19;;;;;;;1999.90;999.90;;;;;;;-2.24;31.54;101742.06;5018903;27;97869;-71
2022/03/14 05:30:46;;;;;;;1999.90;999.90;;;;;;;-2.26;31.22;101734.09;5019883;27;98572;-71
2022/03/14 05:33:15;;;;;;;1999.90;999.90;;;;;;;-2.28;31.35;101739.94;5021254;27;97003;-71
2022/03/14 05:35:43;;;;;;;1999.90;999.90;;;;;;;-2.32;32.16;101738.78;5017007;28;97878;-71
2022/03/14 05:38:10;;;;;;;1999.90;999.90;;;;;;;-2.35;31.59;101737.59;4990773;28;98549;-71
2022/03/14 05:40:38;;;;;;;1999.90;999.90;;;;;;;-2.40;31.51;101737.19;5006721;27;98640;-71
2022/03/14 05:43:07;;;;;;;1999.90;999.90;;;;;;;-2.44;31.83;101732.50;5000716;28;97300;-70
2022/03/14 05:45:36;;;;;;;1999.90;999.90;;;;;;;-2.50;31.83;101742.38;5007819;27;96953;-71
2022/03/14 05:48:04;;;;;;;1999.90;999.90;;;;;;;-2.52;31.94;101733.50;5017585;28;97791;-71
2022/03/14 05:50:33;;;;;;;1999.90;999.90;;;;;;;-2.53;31.96;101741.19;5018525;27;97797;-71
2022/03/14 05:53:02;;;;;;;1999.90;999.90;;;;;;;-2.56;31.70;101748.75;5003234;27;96740;-71
2022/03/14 05:55:29;;;;;;;1999.90;999.90;;;;;;;-2.57;32.12;101755.66;4999773;28;98468;-71
2022/03/14 05:57:58;;;;;;;1999.90;999.90;;;;;;;-2.55;31.96;101759.31;5002796;28;100396;-71
2022/03/14 06:00:26;;;;;;;1999.90;999.90;;;;;;;-2.53;31.51;101759.44;5002999;28;98529;-71
2022/03/14 06:02:55;;;;;;;1999.90;999.90;;;;;;;-2.52;32.25;101758.66;5003000;27;97230;-71
2022/03/14 06:05:23;;;;;;;1999.90;999.90;;;;;;;-2.53;32.08;101768.19;4985360;27;96900;-72
2022/03/14 06:07:51;;;;;;;1999.90;999.90;;;;;;;-2.55;32.03;101767.13;4999909;28;98953;-71
2022/03/14 06:10:19;;;;;;;1999.90;999.90;;;;;;;-2.54;31.55;101768.00;5002039;28;100162;-71
2022/03/14 06:12:46;;;;;;;1999.90;999.90;;;;;;;-2.53;31.95;101768.19;4999691;28;97418;-71
2022/03/14 06:15:16;;;;;;;1999.90;999.90;;;;;;;-2.54;31.67;101761.13;5019099;28;98279;-72
2022/03/14 06:17:44;;;;;;;1999.90;999.90;;;;;;;-2.55;32.00;101767.13;5007009;27;98444;-72
2022/03/14 06:20:15;;;;;;;1999.90;999.90;;;;;;;-2.56;31.55;101773.09;4991187;27;100997;-71
2022/03/14 06:22:44;;;;;;;1999.90;999.90;;;;;;;-2.54;31.75;101774.16;5002204;28;98225;-72
2022/03/14 06:25:12;;;;;;;1999.90;999.90;;;;;;;-2.51;31.43;101778.72;5009631;27;97254;-71
2022/03/14 06:27:41;;;;;;;1999.90;999.90;;;;;;;-2.48;32.01;101777.31;5018685;27;97432;-71
2022/03/14 06:30:09;;;;;;;1999.90;999.90;;;;;;;-2.46;31.78;101775.75;5010568;28;97791;-71
2022/03/14 06:32:38;;;;;;;1999.90;999.90;;;;;;;-2.44;32.02;101769.00;5016928;27;99471;-72
2022/03/14 06:35:08;;;;;;;1999.90;999.90;;;;;;;-2.44;31.56;101779.41;5017074;27;98402;-71
2022/03/14 06:37:38;;;;;;;1999.90;999.90;;;;;;;-2.42;31.90;101776.94;5018134;28;98330;-71
2022/03/14 06:40:06;;;;;;;1999.90;999.90;;;;;;;-2.41;32.19;101774.47;5017640;28;98272;-71
2022/03/14 06:42:41;;;;;;;1999.90;999.90;;;;;;;-2.41;31.89;101790.09;5019262;27;97124;-71
2022/03/14 06:45:11;;;;;;;1999.90;999.90;;;;;;;-2.38;31.75;101790.34;5015508;27;97188;-71
2022/03/14 06:47:39;;;;;;;1999.90;999.90;;;;;;;-2.36;31.51;101799.22;5013247;28;99085;-72
2022/03/14 06:50:08;;;;;;;1999.90;999.90;;;;;;;-2.33;31.64;101796.00;5005004;27;99229;-71
2022/03/14 06:52:37;;;;;;;1999.90;999.90;;;;;;;-2.31;31.75;101792.72;5007413;27;99761;-71
2022/03/14 06:55:06;;;;;;;1999.90;999.90;;;;;;;-2.25;31.31;101793.28;4988776;28;97759;-72
2022/03/14 06:57:34;;;;;;;1999.90;999.90;;;;;;;-2.23;32.02;101802.16;4981897;28;98640;-69
2022/03/14 07:00:02;;;;;;;1999.90;999.90;;;;;;;-2.20;31.33;101802.41;5012796;27;99172;-69
2022/03/14 07:02:29;;;;;;;1999.90;999.90;;;;;;;-2.17;31.91;101800.13;5006192;27;97780;-69
2022/03/14 07:04:59;;;;;;;1999.90;999.90;;;;;;;-2.13;31.82;101807.44;5017320;27;98020;-68
2022/03/14 07:07:26;;;;;;;1999.90;999.90;;;;;;;-2.07;31.17;101823.59;5016683;27;98127;-69
2022/03/14 07:09:55;;;;;;;1999.90;999.90;;;;;;;-2.03;31.45;101822.16;4999633;28;99322;-69
2022/03/14 07:12:23;;;;;;;1999.90;999.90;;;;;;;-1.99;31.53;101817.38;5009504;27;97338;-69
2022/03/14 07:14:51;;;;;;;1999.90;999.90;;;;;;;-1.96;31.53;101812.41;5000188;28;97948;-69
2022/03/14 07:17:20;;;;;;;1999.90;999.90;;;;;;;-1.90;31.58;101814.63;5010402;27;98665;-69
2022/03/14 07:19:47;;;;;;;1999.90;999.90;;;;;;;-1.85;31.91;101814.25;5014848;27;97991;-69
2022/03/14 07:22:19;;;;;;;1999.90;999.90;;;;;;;-1.78;31.00;101815.72;4991071;27;97665;-68
2022/03/14 07:24:55;;;;;;;1999.90;999.90;;;;;;;-1.71;31.92;101818.06;5017181;27;97127;-68
2022/03/14 07:27:23;;;;;;;1999.90;999.90;;;;;;;-1.66;31.44;101821.06;5009548;28;98906;-68
2022/03/14 07:29:50;;;;;;;1999.90;999.90;;;;;;;-1.61;31.14;101832.81;4993198;28;98068;-68
2022/03/14 07:32:18;;;;;;;1999.90;999.90;;;;;;;-1.58;31.25;101827.88;4999108;27;97626;-68
2022/03/14 07:34:46;;;;;;;1999.90;999.90;;;;;;;-1.52;31.71;101831.00;5020832;27;97200;-68
2022/03/14 07:37:13;;;;;;;1999.90;999.90;;;;;;;-1.47;31.35;101830.59;5021597;27;98063;-68
2022/03/14 07:39:41;;;;;;;1999.90;999.90;;;;;;;-1.40;31.26;101834.66;4988556;28;98429;-68
2022/03/14 07:42:10;;;;;;;1999.90;999.90;;;;;;;-1.34;30.88;101835.19;5000232;27;97371;-68
2022/03/14 07:44:38;;;;;;;1999.90;999.90;;;;;;;-1.29;30.87;101832.19;5020365;27;97713;-69
2022/03/14 07:47:10;;;;;;;1999.90;999.90;;;;;;;-1.20;31.05;101832.03;5015869;27;99608;-68
2022/03/14 07:49:38;;;;;;;1999.90;999.90;;;;;;;-1.14;31.28;101837.78;4997211;28;99158;-68
2022/03/14 07:52:06;;;;;;;1999.90;999.90;;;;;;;-1.07;31.25;101837.53;5012111;27;96771;-68
2022/03/14 07:54:34;;;;;;;1999.90;999.90;;;;;;;-1.01;30.74;101844.16;5000553;28;98211;-67
2022/03/14 07:57:02;;;;;;;1999.90;999.90;;;;;;;-0.94;30.70;101849.09;5018889;27;97716;-68
2022/03/14 07:59:31;;;;;;;1999.90;999.90;;;;;;;-0.85;30.64;101843.75;5021948;28;98505;-68
2022/03/14 08:01:59;;;;;;;1999.90;999.90;;;;;;;-0.77;31.13;101842.69;5010502;27;97784;-68
2022/03/14 08:04:26;;;;;;;1999.90;999.90;;;;;;;-0.70;30.92;101847.63;5020698;27;99935;-68
2022/03/14 08:06:54;;;;;;;1999.90;999.90;;;;;;;-0.66;31.07;101841.88;5023167;27;97549;-68
2022/03/14 08:09:22;;;;;;;1999.90;999.90;;;;;;;-0.59;30.84;101838.97;4999909;28;98446;-69
2022/03/14 08:11:50;;;;;;;1999.90;999.90;;;;;;;-0.53;31.12;101844.72;4991029;28;96865;-68
2022/03/14 08:14:18;;;;;;;1999.90;999.90;;;;;;;-0.46;30.92;101851.34;5019009;27;96852;-69
2022/03/14 08:16:47;;;;;;;1999.90;999.90;;;;;;;-0.42;30.51;101846.50;4975673;28;98063;-68
2022/03/14 08:19:16;;;;;;;1999.90;999.90;;;;;;;-0.35;30.28;101840.97;5010640;27;100094;-69
2022/03/14 08:21:44;;;;;;;1999.90;999.90;;;;;;;-0.27;30.36;101846.84;5021735;27;97494;-69
2022/03/14 08:24:12;;;;;;;1999.90;999.90;;;;;;;-0.23;30.53;101848.91;5017833;27;97195;-69
2022/03/14 08:26:42;;;;;;;1999.90;999.90;;;;;;;-0.16;30.54;101839.09;4991455;28;99669;-69
2022/03/14 08:29:11;;;;;;;1999.90;999.90;;;;;;;-0.10;30.27;101844.78;4996680;27;98481;-68
2022/03/14 08:31:39;;;;;;;1999.90;999.90;;;;;;;-0.05;30.38;101840.84;5015867;27;97158;-68
2022/03/14 08:34:08;;;;;;;1999.90;999.90;;;;;;;0.06;30.24;101839.09;5014903;27;97211;-68
2022/03/14 08:36:36;;;;;;;1999.90;999.90;;;;;;;0.13;30.49;101850.16;5018451;27;97870;-68
2022/03/14 08:39:04;;;;;;;1999.90;999.90;;;;;;;0.21;30.25;101856.91;5016813;27;100573;-69
2022/03/14 08:41:32;;;;;;;1999.90;999.90;;;;;;;0.30;29.92;101854.16;5001655;28;97838;-68
2022/03/14 08:44:00;;;;;;;1999.90;999.90;;;;;;;0.37;30.20;101855.53;5017800;27;96773;-69
2022/03/14 08:46:27;;;;;;;1999.90;999.90;;;;;;;0.45;30.25;101854.47;5018467;28;97202;-68
2022/03/14 08:48:55;;;;;;;1999.90;999.90;;;;;;;0.53;29.99;101850.72;5017397;27;98134;-68
2022/03/14 08:51:24;;;;;;;1999.90;999.90;;;;;;;0.60;29.93;101851.31;5002131;28;97594;-68
2022/03/14 08:53:52;;;;;;;1999.90;999.90;;;;;;;0.66;30.02;101869.22;5012260;27;98805;-68
2022/03/14 08:56:22;;;;;;;1999.90;999.90;;;;;;;0.70;29.71;101859.09;4997529;27;100557;-69
2022/03/14 08:58:50;;;;;;;1999.90;999.90;;;;;;;0.74;30.07;101860.25;5016573;27;98115;-70
2022/03/14 09:01:17;;;;;;;1999.90;999.90;;;;;;;0.81;29.87;101860.81;5010611;27;97729;-75
2022/03/14 09:03:45;;;;;;;1999.90;999.90;;;;;;;0.84;29.69;101868.00;5000056;27;97430;-71
2022/03/14 09:06:13;;;;;;;1999.90;999.90;;;;;;;0.90;30.14;101860.63;4988526;28;99335;-71
2022/03/14 09:08:42;;;;;;;1999.90;999.90;;;;;;;0.98;29.67;101867.34;5009319;27;97752;-74
2022/03/14 09:11:10;;;;;;;1999.90;999.90;;;;;;;1.04;29.99;101881.88;5004938;27;96987;-74
2022/03/14 09:13:38;;;;;;;1999.90;999.90;;;;;;;1.11;29.97;101873.66;4999829;28;97227;-71
2022/03/14 09:16:07;;;;;;;1999.90;999.90;;;;;;;1.20;30.08;101881.31;5007478;27;97888;-71
2022/03/14 09:18:36;;;;;;;1999.90;999.90;;;;;;;1.24;29.41;101886.00;4992365;28;100546;-69
2022/03/14 09:21:04;;;;;;;1999.90;999.90;;;;;;;1.26;29.73;101888.72;4994953;27;97804;-71
2022/03/14 09:23:31;;;;;;;1999.90;999.90;;;;;;;1.30;29.68;101891.72;4993359;28;98481;-71
2022/03/14 09:26:01;;;;;;;1999.90;999.90;;;;;;;1.35;29.94;101886.78;5011162;27;97328;-71
2022/03/14 09:28:29;;;;;;;1999.90;999.90;;;;;;;1.40;29.43;101885.47;5001631;27;99607;-71
2022/03/14 09:30:58;;;;;;;1999.90;999.90;;;;;;;1.45;29.40;101887.59;4969842;27;97713;-70
2022/03/14 09:33:29;;;;;;;1999.90;999.90;;;;;;;1.53;29.58;101886.47;5002471;27;98109;-71
2022/03/14 09:35:57;;;;;;;1999.90;999.90;;;;;;;1.60;29.65;101891.38;4995784;27;99393;-71
2022/03/14 09:38:25;;;;;;;1999.90;999.90;;;;;;;1.70;29.13;101888.66;5030053;27;99318;-71
2022/03/14 09:40:53;;;;;;;1999.90;999.90;;;;;;;1.81;29.55;101894.69;5008066;27;97536;-71
2022/03/14 09:43:25;;;;;;;1999.90;999.90;;;;;;;1.89;29.76;101893.56;5014109;27;97455;-71
2022/03/14 09:45:53;;;;;;;1999.90;999.90;;;;;;;2.00;29.15;101906.63;5012139;27;99376;-71
2022/03/14 09:48:22;;;;;;;1999.90;999.90;;;;;;;2.10;29.04;101914.44;5010703;27;98184;-71
2022/03/14 09:50:53;;;;;;;1999.90;999.90;;;;;;;2.19;29.00;101916.81;4989873;28;98309;-72
2022/03/14 09:53:21;;;;;;;1999.90;999.90;;;;;;;2.28;29.30;101911.28;5005254;27;98929;-72
2022/03/14 09:55:49;;;;;;;1999.90;999.90;;;;;;;2.32;29.00;101902.84;4987186;28;99387;-71
2022/03/14 09:58:18;;;;;;;1999.90;999.90;;;;;;;2.36;28.45;101907.53;5005900;28;98875;-72
2022/03/14 10:00:48;;;;;;;1999.90;999.90;;;;;;;2.39;29.43;101907.72;5005836;27;97466;-72
2022/03/14 10:03:21;;;;;;;1999.90;999.90;;;;;;;2.47;29.49;101906.56;4987048;27;97915;-72
2022/03/14 10:05:48;;;;;;;1999.90;999.90;;;;;;;2.52;29.57;101906.09;5005281;27;98738;-72
2022/03/14 10:08:16;;;;;;;1999.90;999.90;;;;;;;2.61;28.76;101921.59;5002893;28;99203;-72
2022/03/14 10:10:44;;;;;;;1999.90;999.90;;;;;;;2.71;28.61;101924.09;5021832;27;97188;-73
2022/03/14 10:13:33;;;;;;;1999.90;999.90;;;;;;;2.81;28.69;101935.34;4986149;28;97207;-72
2022/03/14 10:16:09;;;;;;;1999.90;999.90;;;;;;;2.89;28.49;101942.03;5029543;27;97345;-73
2022/03/14 10:18:51;;;;;;;1999.90;999.90;;;;;;;2.99;28.61;101935.72;5034991;27;97121;-72
2022/03/14 10:21:29;;;;;;;1999.90;999.90;;;;;;;3.08;28.68;101938.97;5031280;27;98096;-73
2022/03/14 10:24:00;;;;;;;1999.90;999.90;;;;;;;3.18;28.38;101937.09;5028905;27;101810;-72
2022/03/14 10:26:29;;;;;;;1999.90;999.90;;;;;;;3.23;28.37;101930.44;5010923;27;97987;-73
2022/03/14 10:28:57;;;;;;;1999.90;999.90;;;;;;;3.29;28.70;101940.47;5027711;27;99067;-73
2022/03/14 10:31:37;;;;;;;1999.90;999.90;;;;;;;3.32;28.46;101940.69;5030371;27;99902;-73
2022/03/14 10:34:08;;;;;;;1999.90;999.90;;;;;;;3.38;28.46;101938.47;5028413;27;97734;-73
2022/03/14 10:36:45;;;;;;;1999.90;999.90;;;;;;;3.45;28.66;101953.88;5031202;27;96844;-73
2022/03/14 10:39:20;;;;;;;1999.90;999.90;;;;;;;3.50;28.68;101957.72;5033695;27;97546;-72
2022/03/14 10:42:02;;;;;;;1999.90;999.90;;;;;;;3.55;28.53;101963.31;5031831;27;99346;-72
2022/03/14 10:44:48;;;;;;;1999.90;999.90;;;;;;;3.65;28.39;101960.50;5032211;27;101218;-72
2022/03/14 10:47:19;;;;;;;1999.90;999.90;;;;;;;3.73;28.50;101957.56;5034958;27;97291;-73
2022/03/14 10:49:48;;;;;;;1999.90;999.90;;;;;;;3.81;28.38;101953.75;5033702;27;97358;-73
2022/03/14 10:52:18;;;;;;;1999.90;999.90;;;;;;;3.91;28.19;101964.09;5028281;27;100729;-73
2022/03/14 10:54:47;;;;;;;1999.90;999.90;;;;;;;3.99;28.61;101965.50;5035074;27;100010;-73
2022/03/14 10:57:18;;;;;;;1999.90;999.90;;;;;;;4.10;28.45;101968.84;5033826;27;97751;-73